Time;durP1;ratioP1;P1;durP2;ratioP2;P2;SDS_P1;SDS_P2;PMS_P1;PMS_P2;Temp;Humidity;BMP_temperature;BMP_pressure;BME280_temperature;BME280_humidity;BME280_pressure;Samples;Min_cycle;Max_cycle;Signal;HPM_P1;HPM_P2
2021/08/31 00:01:05;;;;;;;17.98;10.13;;;;;;;18.41;100.00;98338.53;1870507;76;22588;-58
2021/08/31 00:03:40;;;;;;;15.32;10.05;;;;;;;18.29;100.00;98338.05;1870673;76;22141;-61
2021/08/31 00:06:15;;;;;;;15.45;10.35;;;;;;;18.20;100.00;98328.74;1870583;76;22164;-61
2021/08/31 00:08:52;;;;;;;15.00;10.03;;;;;;;18.15;100.00;98326.27;1870688;76;22572;-59
2021/08/31 00:11:27;;;;;;;13.80;9.90;;;;;;;18.05;100.00;98337.03;1870677;76;22133;-62
2021/08/31 00:14:01;;;;;;;16.52;10.53;;;;;;;17.98;100.00;98334.59;1889974;76;22588;-59
2021/08/31 00:16:37;;;;;;;17.75;11.50;;;;;;;17.95;100.00;98334.68;1870686;76;22168;-63
2021/08/31 00:19:12;;;;;;;14.38;10.70;;;;;;;17.87;100.00;98343.19;1854829;76;27947;-59
2021/08/31 00:21:47;;;;;;;17.20;10.80;;;;;;;17.88;100.00;98339.66;1870777;76;22555;-60
2021/08/31 00:24:23;;;;;;;15.95;10.25;;;;;;;17.87;100.00;98326.22;1870472;76;22154;-59
2021/08/31 00:27:17;;;;;;;16.32;10.45;;;;;;;17.86;100.00;98332.78;1889914;76;22168;-61
2021/08/31 00:29:52;;;;;;;17.65;10.65;;;;;;;17.81;100.00;98339.46;1870681;76;22580;-64
2021/08/31 00:32:27;;;;;;;17.25;11.68;;;;;;;17.80;100.00;98339.03;1870670;76;22130;-64
2021/08/31 00:35:03;;;;;;;16.17;11.12;;;;;;;17.79;100.00;98342.10;1889991;76;22591;-60
2021/08/31 00:37:39;;;;;;;18.98;11.63;;;;;;;17.80;100.00;98345.56;1870455;76;22141;-59
2021/08/31 00:40:14;;;;;;;16.95;11.43;;;;;;;17.81;100.00;98339.46;1870833;76;22112;-62
2021/08/31 00:42:49;;;;;;;18.85;11.73;;;;;;;17.76;100.00;98333.03;1889957;76;22111;-57
2021/08/31 00:45:25;;;;;;;16.42;11.22;;;;;;;17.71;100.00;98340.59;1890055;76;22143;-60
2021/08/31 00:48:24;;;;;;;16.35;10.35;;;;;;;17.68;100.00;98340.64;1890077;76;22112;-57
2021/08/31 00:50:59;;;;;;;18.98;11.00;;;;;;;17.67;100.00;98338.49;1870748;76;22124;-62
2021/08/31 00:53:36;;;;;;;17.95;10.20;;;;;;;17.67;100.00;98344.16;1870691;76;22132;-62
2021/08/31 00:56:11;;;;;;;15.25;10.48;;;;;;;17.68;100.00;98339.34;1889989;76;22187;-58
2021/08/31 00:58:46;;;;;;;15.40;11.40;;;;;;;17.61;100.00;98339.13;1854828;76;38067;-61
2021/08/31 01:01:41;;;;;;;15.03;9.43;;;;;;;17.59;100.00;98346.98;1870610;76;22626;-59
2021/08/31 01:04:19;;;;;;;13.28;9.98;;;;;;;17.55;100.00;98351.88;1889978;76;22169;-61
2021/08/31 01:07:15;;;;;;;18.50;10.15;;;;;;;17.55;100.00;98356.66;1869053;75;22204;-58
2021/08/31 01:09:50;;;;;;;18.12;10.78;;;;;;;17.58;100.00;98356.58;1870749;76;22551;-63
2021/08/31 01:12:44;;;;;;;17.45;10.88;;;;;;;17.59;100.00;98360.03;1870633;76;22116;-62
2021/08/31 01:15:21;;;;;;;16.82;11.63;;;;;;;17.58;100.00;98359.19;1854661;76;27923;-57
2021/08/31 01:17:56;;;;;;;16.60;11.75;;;;;;;17.64;100.00;98357.30;1854873;76;38213;-61
2021/08/31 01:20:32;;;;;;;15.83;9.95;;;;;;;17.71;100.00;98361.47;1889938;76;22603;-62
2021/08/31 01:23:09;;;;;;;18.00;11.55;;;;;;;17.71;100.00;98365.38;1835120;77;27989;-59
2021/08/31 01:26:05;;;;;;;14.85;10.58;;;;;;;17.72;100.00;98376.21;1870437;76;22145;-61
2021/08/31 01:29:00;;;;;;;20.23;11.15;;;;;;;17.68;100.00;98377.18;1870641;76;22145;-59
2021/08/31 01:31:35;;;;;;;17.70;10.78;;;;;;;17.64;100.00;98388.62;1889959;76;22137;-61
2021/08/31 01:34:10;;;;;;;17.32;10.60;;;;;;;17.58;100.00;98387.88;1870680;76;22173;-59
2021/08/31 01:37:11;;;;;;;16.93;11.28;;;;;;;17.56;100.00;98371.41;1869695;76;22588;-63
2021/08/31 01:39:46;;;;;;;18.00;11.20;;;;;;;17.46;100.00;98377.77;1874048;76;38314;-56
2021/08/31 01:42:21;;;;;;;19.87;11.10;;;;;;;17.44;100.00;98385.23;1889985;76;22175;-57
2021/08/31 01:44:58;;;;;;;17.10;10.55;;;;;;;17.45;100.00;98385.63;1889955;76;22108;-59
2021/08/31 01:47:39;;;;;;;20.12;10.85;;;;;;;17.46;100.00;98386.89;1869760;76;22166;-62
2021/08/31 01:50:14;;;;;;;21.80;11.38;;;;;;;17.42;100.00;98390.47;1870673;76;22177;-60
2021/08/31 01:53:09;;;;;;;17.80;11.10;;;;;;;17.35;100.00;98392.82;1870619;76;22121;-63
2021/08/31 01:55:44;;;;;;;17.57;11.12;;;;;;;17.29;100.00;98390.38;1889964;76;22111;-61
2021/08/31 01:58:20;;;;;;;16.32;10.98;;;;;;;17.27;100.00;98391.71;1889934;76;22167;-63
2021/08/31 02:00:55;;;;;;;20.25;12.25;;;;;;;17.26;100.00;98385.25;1870723;76;22597;-63
2021/08/31 02:03:30;;;;;;;18.60;11.10;;;;;;;17.22;100.00;98391.42;1870679;76;22133;-60
2021/08/31 02:06:05;;;;;;;17.48;11.33;;;;;;;17.22;100.00;98390.97;1870673;76;22139;-60
2021/08/31 02:08:39;;;;;;;17.37;10.98;;;;;;;17.21;100.00;98389.73;1870675;76;22168;-65
2021/08/31 02:11:34;;;;;;;16.75;11.40;;;;;;;17.21;100.00;98391.03;1870594;76;22144;-64
2021/08/31 02:14:28;;;;;;;15.50;10.35;;;;;;;17.25;100.00;98397.86;1889933;76;22148;-60
2021/08/31 02:17:04;;;;;;;17.32;11.55;;;;;;;17.28;100.00;98388.23;1854692;76;28341;-63
2021/08/31 02:19:39;;;;;;;17.77;11.00;;;;;;;17.36;100.00;98386.73;1870691;76;22137;-61
2021/08/31 02:22:14;;;;;;;16.27;10.48;;;;;;;17.41;100.00;98390.08;1890079;76;22159;-57
2021/08/31 02:24:48;;;;;;;17.05;10.43;;;;;;;17.40;100.00;98388.80;1870694;76;22125;-61
2021/08/31 02:27:23;;;;;;;18.62;10.63;;;;;;;17.38;100.00;98390.16;1870693;76;22109;-61
2021/08/31 02:29:59;;;;;;;18.67;11.38;;;;;;;17.39;100.00;98387.09;1854758;76;27922;-60
2021/08/31 02:32:34;;;;;;;15.80;9.78;;;;;;;17.43;100.00;98385.68;1870711;76;22516;-61
2021/08/31 02:35:32;;;;;;;18.20;11.15;;;;;;;17.37;100.00;98380.60;1854782;76;27933;-62
2021/08/31 02:38:26;;;;;;;17.45;10.18;;;;;;;17.41;100.00;98390.08;1870685;76;22124;-65
2021/08/31 02:41:01;;;;;;;14.33;10.08;;;;;;;17.41;100.00;98387.92;1870841;76;22101;-61
2021/08/31 02:43:36;;;;;;;14.47;10.03;;;;;;;17.35;100.00;98401.95;1889987;76;22104;-61
2021/08/31 02:46:11;;;;;;;14.45;9.30;;;;;;;17.35;100.00;98404.14;1889964;76;22144;-61
2021/08/31 02:48:50;;;;;;;12.45;8.90;;;;;;;17.34;100.00;98403.70;1870446;76;22136;-59
2021/08/31 02:51:26;;;;;;;14.53;8.65;;;;;;;17.35;100.00;98404.56;1889949;76;22193;-65
2021/08/31 02:54:01;;;;;;;16.60;10.32;;;;;;;17.32;100.00;98403.34;1890010;76;22611;-62
2021/08/31 02:56:36;;;;;;;14.38;10.15;;;;;;;17.30;100.00;98409.03;1854828;76;27980;-60
2021/08/31 02:59:11;;;;;;;12.95;8.35;;;;;;;17.35;100.00;98416.30;1870677;76;22132;-63
2021/08/31 03:02:05;;;;;;;12.75;8.68;;;;;;;17.31;100.00;98418.59;1889961;76;22567;-61
2021/08/31 03:04:54;;;;;;;12.65;8.58;;;;;;;17.26;100.00;98412.63;1870691;76;22532;-59
2021/08/31 03:07:29;;;;;;;13.48;8.83;;;;;;;17.18;100.00;98422.41;1870608;76;22125;-63
2021/08/31 03:10:05;;;;;;;12.93;8.48;;;;;;;17.12;100.00;98425.99;1870810;76;22145;-60
2021/08/31 03:12:39;;;;;;;13.40;8.80;;;;;;;17.05;100.00;98428.36;1873914;76;28330;-59
2021/08/31 03:15:15;;;;;;;12.33;7.90;;;;;;;17.07;100.00;98434.37;1870628;76;22101;-62
2021/08/31 03:17:51;;;;;;;12.53;8.03;;;;;;;16.99;100.00;98428.03;1870693;76;22558;-60
2021/08/31 03:20:26;;;;;;;13.72;7.78;;;;;;;16.88;100.00;98431.34;1870682;76;22124;-61
2021/08/31 03:23:01;;;;;;;14.07;8.30;;;;;;;16.79;100.00;98422.42;1854806;76;27935;-61
2021/08/31 03:25:36;;;;;;;12.90;7.80;;;;;;;16.71;100.00;98424.75;1870730;76;22565;-59
2021/08/31 03:28:11;;;;;;;11.00;7.83;;;;;;;16.67;100.00;98425.70;1870655;76;22141;-60
2021/08/31 03:31:06;;;;;;;10.80;7.75;;;;;;;16.68;100.00;98421.34;1870582;76;22181;-63
2021/08/31 03:33:41;;;;;;;12.30;8.15;;;;;;;16.64;100.00;98422.32;1889974;76;22542;-62
2021/08/31 03:36:15;;;;;;;13.18;7.58;;;;;;;16.57;100.00;98417.68;1870692;76;22125;-61
2021/08/31 03:38:51;;;;;;;12.47;7.40;;;;;;;16.49;100.00;98423.05;1870617;76;22140;-62
2021/08/31 03:41:46;;;;;;;10.88;7.62;;;;;;;16.25;100.00;98415.30;1870523;76;22258;-63
2021/08/31 03:44:21;;;;;;;10.75;8.03;;;;;;;16.30;100.00;98416.52;1854720;76;27891;-61
2021/08/31 03:46:56;;;;;;;13.80;7.95;;;;;;;16.23;100.00;98417.11;1870664;76;22176;-60
2021/08/31 03:49:37;;;;;;;10.28;7.28;;;;;;;16.28;100.00;98423.08;1869776;76;22603;-58
2021/08/31 03:52:17;;;;;;;11.65;8.28;;;;;;;16.24;100.00;98411.00;1869781;76;22559;-61
2021/08/31 03:54:58;;;;;;;13.70;7.47;;;;;;;16.20;100.00;98413.23;1869808;76;22165;-60
2021/08/31 03:57:54;;;;;;;10.93;7.80;;;;;;;16.19;100.00;98411.98;1873914;76;27961;-59
2021/08/31 04:00:35;;;;;;;12.58;7.80;;;;;;;16.24;100.00;98422.71;1869816;76;22180;-64
2021/08/31 04:03:12;;;;;;;11.75;6.97;;;;;;;16.24;100.00;98429.22;1870436;76;22551;-61
2021/08/31 04:06:11;;;;;;;15.65;8.05;;;;;;;16.31;100.00;98427.78;1889959;76;22160;-62
2021/08/31 04:08:47;;;;;;;11.15;7.42;;;;;;;16.37;100.00;98435.48;1890012;76;22132;-58
2021/08/31 04:11:27;;;;;;;12.58;8.80;;;;;;;16.41;100.00;98433.20;1889916;76;22173;-59
2021/08/31 04:14:09;;;;;;;11.55;8.33;;;;;;;16.42;100.00;98438.84;1890031;76;22184;-63
2021/08/31 04:17:04;;;;;;;16.27;7.60;;;;;;;16.42;100.00;98447.96;1889915;76;22183;-58
2021/08/31 04:19:39;;;;;;;13.58;7.28;;;;;;;16.44;100.00;98447.49;1870699;76;22117;-59
2021/08/31 04:22:15;;;;;;;13.75;8.48;;;;;;;16.44;100.00;98451.40;1870469;76;22157;-64
2021/08/31 04:24:50;;;;;;;18.70;7.95;;;;;;;16.49;100.00;98455.61;1870681;76;22631;-64
2021/08/31 04:27:26;;;;;;;12.73;7.65;;;;;;;16.45;100.00;98458.31;1870410;76;22587;-63
2021/08/31 04:30:04;;;;;;;12.47;7.22;;;;;;;16.38;100.00;98454.96;1870531;76;22157;-66
2021/08/31 04:32:39;;;;;;;13.48;7.97;;;;;;;16.42;100.00;98460.98;1870762;76;22163;-64
2021/08/31 04:35:34;;;;;;;12.25;7.37;;;;;;;16.31;100.00;98460.33;1889877;76;22120;-64
2021/08/31 04:38:09;;;;;;;14.33;6.87;;;;;;;16.36;100.00;98455.88;1870691;76;22131;-62
2021/08/31 04:40:43;;;;;;;10.88;7.70;;;;;;;16.30;100.00;98453.42;1870831;76;22161;-58
2021/08/31 04:43:18;;;;;;;14.28;8.00;;;;;;;16.25;100.00;98460.86;1889975;76;22159;-61
2021/08/31 04:45:53;;;;;;;11.57;7.55;;;;;;;16.20;100.00;98449.69;1870608;76;22132;-62
2021/08/31 04:48:28;;;;;;;12.68;8.08;;;;;;;16.23;100.00;98449.66;1870678;76;22543;-64
2021/08/31 04:51:04;;;;;;;14.60;7.08;;;;;;;16.30;100.00;98459.93;1870685;76;22136;-62
2021/08/31 04:53:38;;;;;;;15.35;7.75;;;;;;;16.39;100.00;98455.39;1873886;76;27983;-62
2021/08/31 04:56:13;;;;;;;10.58;7.10;;;;;;;16.56;100.00;98456.33;1870750;76;22168;-66
2021/08/31 04:59:08;;;;;;;13.08;7.17;;;;;;;16.60;98.70;98451.47;1870436;76;22136;-63
2021/08/31 05:01:43;;;;;;;11.53;7.55;;;;;;;16.79;97.67;98459.80;1890058;76;22535;-63
2021/08/31 05:04:18;;;;;;;11.57;6.90;;;;;;;17.29;97.19;98472.53;1870698;76;22179;-55
2021/08/31 05:06:53;;;;;;;11.75;7.42;;;;;;;17.52;95.02;98466.30;1870632;76;22575;-63
2021/08/31 05:09:27;;;;;;;12.30;6.92;;;;;;;17.71;93.13;98467.16;1889929;76;22120;-58
2021/08/31 05:12:04;;;;;;;11.45;6.65;;;;;;;17.89;90.99;98462.78;1873845;76;28301;-61
2021/08/31 05:14:39;;;;;;;11.53;7.08;;;;;;;18.35;90.61;98474.57;1870682;76;20212;-59
2021/08/31 05:17:34;;;;;;;9.65;6.60;;;;;;;19.04;86.73;98475.16;1869758;76;22584;-61
2021/08/31 05:20:10;;;;;;;11.05;6.35;;;;;;;19.32;85.98;98476.91;1856823;76;22183;-61
2021/08/31 05:23:11;;;;;;;11.55;6.90;;;;;;;20.34;81.11;98479.55;1853846;76;22319;-59
2021/08/31 05:25:46;;;;;;;9.93;6.60;;;;;;;21.22;76.31;98483.20;1853559;76;22163;-59
2021/08/31 05:28:27;;;;;;;11.65;6.28;;;;;;;22.56;73.01;98492.02;1844741;76;22197;-58
2021/08/31 05:31:22;;;;;;;10.10;5.65;;;;;;;23.96;67.69;98494.09;1870552;76;22146;-59
2021/08/31 05:34:05;;;;;;;9.10;5.72;;;;;;;25.29;60.30;98501.97;1889953;76;22203;-58
2021/08/31 05:36:39;;;;;;;8.90;5.08;;;;;;;25.96;58.23;98506.95;1868474;76;22575;-56
2021/08/31 05:39:40;;;;;;;9.43;4.92;;;;;;;26.73;53.92;98503.64;1852950;76;22262;-59
2021/08/31 05:42:15;;;;;;;11.08;5.30;;;;;;;26.92;52.72;98505.52;1854290;76;27910;-63
2021/08/31 05:44:51;;;;;;;8.25;4.87;;;;;;;27.19;52.59;98504.72;1854230;76;27927;-62
2021/08/31 05:47:32;;;;;;;8.50;4.60;;;;;;;27.90;50.90;98508.42;1869490;76;22762;-61
2021/08/31 05:50:32;;;;;;;6.60;4.78;;;;;;;28.78;48.36;98503.26;1889708;76;22188;-60
2021/08/31 05:53:13;;;;;;;6.53;4.50;;;;;;;29.40;46.20;98504.16;1883672;76;22283;-60
2021/08/31 05:55:54;;;;;;;8.45;4.75;;;;;;;29.94;44.08;98506.31;1854036;76;22131;-60
2021/08/31 05:58:30;;;;;;;7.58;5.05;;;;;;;30.50;44.11;98511.77;1838888;76;28473;-59
2021/08/31 06:01:06;;;;;;;9.78;4.35;;;;;;;31.08;42.24;98514.80;1858665;76;22092;-59
2021/08/31 06:04:00;;;;;;;6.87;4.30;;;;;;;31.26;40.55;98513.31;1860150;76;22299;-59
2021/08/31 06:06:35;;;;;;;8.88;4.37;;;;;;;30.93;41.07;98516.39;1851624;76;22733;-60
2021/08/31 06:09:29;;;;;;;6.12;4.12;;;;;;;30.87;40.70;98515.56;1853009;76;22081;-58
2021/08/31 06:12:10;;;;;;;6.80;4.37;;;;;;;30.73;40.54;98519.77;1850279;76;22414;-62
2021/08/31 06:15:07;;;;;;;8.50;4.30;;;;;;;31.05;40.32;98526.56;1865878;76;22255;-60
2021/08/31 06:17:42;;;;;;;7.30;4.20;;;;;;;31.54;39.76;98527.08;1864982;76;22269;-60
2021/08/31 06:20:17;;;;;;;7.65;3.75;;;;;;;32.18;39.31;98537.72;1852935;76;22174;-59
2021/08/31 06:22:52;;;;;;;6.45;3.98;;;;;;;33.12;37.85;98539.49;1864267;76;22084;-63
2021/08/31 06:25:27;;;;;;;4.80;3.85;;;;;;;33.78;36.28;98543.77;1837740;76;22558;-64
2021/08/31 06:28:01;;;;;;;5.97;4.25;;;;;;;33.94;35.90;98556.11;1854897;76;22159;-58
2021/08/31 06:30:36;;;;;;;7.65;4.22;;;;;;;34.16;35.25;98555.47;1870469;76;22082;-61
2021/08/31 06:33:11;;;;;;;6.60;4.20;;;;;;;34.39;33.79;98559.17;1870641;76;22470;-60
2021/08/31 06:35:46;;;;;;;8.10;4.10;;;;;;;34.13;34.29;98557.11;1889920;76;22135;-63
2021/08/31 06:38:27;;;;;;;5.55;3.70;;;;;;;34.20;33.50;98552.03;1875968;76;22120;-60
2021/08/31 06:41:02;;;;;;;8.23;4.05;;;;;;;33.37;34.36;98560.87;1870616;76;22054;-64
2021/08/31 06:43:58;;;;;;;6.15;4.03;;;;;;;32.52;36.44;98546.90;1852503;76;22658;-63
2021/08/31 06:46:33;;;;;;;9.10;4.10;;;;;;;32.06;36.83;98548.59;1847355;76;22084;-61
2021/08/31 06:49:08;;;;;;;5.53;3.98;;;;;;;32.05;37.20;98554.42;1860714;76;22170;-61
2021/08/31 06:51:43;;;;;;;7.78;3.70;;;;;;;32.43;36.59;98555.66;1851312;76;22129;-63
2021/08/31 06:54:25;;;;;;;5.78;3.95;;;;;;;32.80;35.98;98557.37;1867927;76;22175;-60
2021/08/31 06:57:00;;;;;;;6.35;3.67;;;;;;;32.56;35.92;98556.81;1852758;76;22487;-62
2021/08/31 06:59:41;;;;;;;5.33;3.45;;;;;;;32.75;36.23;98560.09;1849469;76;22125;-64
2021/08/31 07:02:35;;;;;;;5.22;3.40;;;;;;;32.92;35.67;98559.44;1870465;76;22087;-63
2021/08/31 07:05:11;;;;;;;5.37;3.90;;;;;;;33.47;35.03;98554.56;1870629;76;22612;-62
2021/08/31 07:08:05;;;;;;;4.67;3.42;;;;;;;34.39;33.40;98557.84;1870405;76;22116;-64
2021/08/31 07:10:40;;;;;;;6.37;3.53;;;;;;;34.33;33.01;98560.10;1873126;76;27922;-62
2021/08/31 07:13:16;;;;;;;6.92;3.45;;;;;;;34.18;32.88;98563.38;1870369;76;22087;-63
2021/08/31 07:15:51;;;;;;;5.40;3.30;;;;;;;34.46;33.16;98556.27;1870586;76;22054;-66
2021/08/31 07:18:26;;;;;;;4.37;3.05;;;;;;;34.74;32.12;98559.38;1889856;76;22110;-64
2021/08/31 07:21:01;;;;;;;4.97;3.27;;;;;;;34.36;32.22;98557.12;1870628;76;22079;-61
2021/08/31 07:23:35;;;;;;;5.45;3.02;;;;;;;34.35;32.31;98562.15;1870691;76;22074;-62
2021/08/31 07:26:10;;;;;;;5.22;3.05;;;;;;;33.40;32.72;98557.42;1870611;76;22046;-61
2021/08/31 07:28:45;;;;;;;3.85;2.85;;;;;;;32.68;34.45;98561.60;1870377;76;22079;-64
2021/08/31 07:31:27;;;;;;;4.15;2.35;;;;;;;33.39;33.68;98563.77;1889996;76;22281;-62
2021/08/31 07:34:08;;;;;;;4.12;3.00;;;;;;;34.24;32.22;98564.97;1869826;76;22082;-66
2021/08/31 07:36:42;;;;;;;7.15;2.85;;;;;;;34.09;32.30;98569.95;1890023;76;22045;-62
2021/08/31 07:39:37;;;;;;;4.67;2.75;;;;;;;34.44;32.40;98569.80;1870604;76;22513;-61
2021/08/31 07:42:17;;;;;;;5.97;2.83;;;;;;;34.29;31.96;98576.09;1869783;76;22074;-65
2021/08/31 07:44:52;;;;;;;6.03;2.80;;;;;;;33.78;32.82;98566.52;1889916;76;22659;-61
2021/08/31 07:47:27;;;;;;;3.70;2.50;;;;;;;33.71;32.78;98574.75;1889888;76;22042;-62
2021/08/31 07:50:05;;;;;;;5.45;3.10;;;;;;;33.79;33.06;98567.36;1870645;76;22075;-63
2021/08/31 07:52:58;;;;;;;5.35;2.75;;;;;;;34.02;32.69;98575.95;1870645;76;20212;-63
2021/08/31 07:55:33;;;;;;;5.33;3.22;;;;;;;33.99;32.41;98573.06;1889848;76;22082;-61
2021/08/31 07:58:08;;;;;;;4.20;2.50;;;;;;;34.49;31.76;98574.23;1870899;76;22046;-64
2021/08/31 08:00:42;;;;;;;5.25;2.47;;;;;;;34.90;30.96;98584.72;1870612;76;22079;-66
2021/08/31 08:03:17;;;;;;;4.87;2.77;;;;;;;35.15;31.20;98583.23;1889929;76;22085;-64
2021/08/31 08:05:52;;;;;;;5.55;3.00;;;;;;;35.40;30.86;98592.42;1870560;76;22079;-62
2021/08/31 08:08:27;;;;;;;4.25;2.45;;;;;;;35.88;30.05;98583.22;1890045;76;22452;-64
2021/08/31 08:11:03;;;;;;;5.60;2.60;;;;;;;36.12;29.83;98587.14;1870432;76;22107;-67
2021/08/31 08:14:05;;;;;;;4.15;2.80;;;;;;;36.60;28.87;98590.72;1890051;76;22264;-62
2021/08/31 08:16:40;;;;;;;3.72;2.12;;;;;;;36.79;28.72;98599.56;1870558;76;22497;-67
2021/08/31 08:19:36;;;;;;;5.70;2.55;;;;;;;36.52;28.19;98594.67;1870526;76;22078;-64
2021/08/31 08:22:13;;;;;;;6.33;2.08;;;;;;;35.53;29.30;98592.89;1870454;76;22119;-65
2021/08/31 08:25:08;;;;;;;5.22;2.17;;;;;;;34.59;30.66;98591.66;1869416;76;22086;-63
2021/08/31 08:28:03;;;;;;;5.28;2.67;;;;;;;34.54;30.57;98584.02;1855306;76;22106;-64
2021/08/31 08:30:38;;;;;;;4.67;2.15;;;;;;;33.99;30.85;98586.95;1870328;76;20102;-65
2021/08/31 08:33:33;;;;;;;4.25;1.92;;;;;;;33.79;30.86;98586.09;1889611;76;22069;-62
2021/08/31 08:36:08;;;;;;;3.85;2.35;;;;;;;33.45;31.15;98581.94;1889719;76;22077;-65
2021/08/31 08:38:43;;;;;;;2.95;1.87;;;;;;;32.94;32.78;98576.19;1870473;76;22082;-65
2021/08/31 08:41:38;;;;;;;3.95;2.17;;;;;;;32.87;32.79;98585.72;1870148;76;22091;-63
2021/08/31 08:44:13;;;;;;;4.53;2.72;;;;;;;32.41;33.51;98584.32;1870467;76;22244;-63
2021/08/31 08:46:49;;;;;;;4.30;2.58;;;;;;;32.02;34.20;98589.39;1889843;76;22482;-65
2021/08/31 08:49:25;;;;;;;5.95;2.67;;;;;;;31.64;34.99;98586.70;1866530;76;22091;-66
2021/08/31 08:52:07;;;;;;;7.00;2.20;;;;;;;31.74;35.37;98582.80;1842312;76;22226;-63
2021/08/31 08:54:43;;;;;;;3.92;2.20;;;;;;;31.92;35.05;98590.61;1873692;76;27919;-64
2021/08/31 08:57:30;;;;;;;4.60;2.40;;;;;;;32.07;34.28;98581.84;1889382;76;22571;-64
2021/08/31 09:00:08;;;;;;;5.65;2.20;;;;;;;31.78;34.49;98583.76;1889567;76;22081;-65
2021/08/31 09:02:49;;;;;;;4.03;2.30;;;;;;;31.22;35.41;98567.87;1869439;76;22090;-63
2021/08/31 09:05:32;;;;;;;4.08;2.37;;;;;;;30.67;36.23;98570.38;1870225;76;22572;-64
2021/08/31 09:08:08;;;;;;;6.78;2.50;;;;;;;30.16;36.95;98557.92;1867845;76;22133;-64
2021/08/31 09:10:45;;;;;;;6.30;2.37;;;;;;;29.66;37.96;98551.92;1855173;76;22539;-65
2021/08/31 09:13:23;;;;;;;5.35;2.80;;;;;;;28.83;39.28;98567.16;1847246;76;28181;-62
2021/08/31 09:15:56;;;;;;;5.15;3.02;;;;;;;28.15;40.64;98558.50;1861573;76;22274;-62
2021/08/31 09:18:31;;;;;;;3.58;2.50;;;;;;;27.53;41.63;98560.83;1859057;76;22082;-65
2021/08/31 09:21:06;;;;;;;3.52;2.40;;;;;;;26.92;42.95;98557.16;1834340;76;22647;-63
2021/08/31 09:23:43;;;;;;;4.00;2.70;;;;;;;26.23;44.58;98552.08;1870270;76;23245;-63
2021/08/31 09:26:42;;;;;;;4.05;2.70;;;;;;;25.49;45.45;98540.91;1889674;76;22259;-64
2021/08/31 09:29:24;;;;;;;3.95;2.60;;;;;;;24.75;46.76;98549.38;1869770;76;22082;-62
2021/08/31 09:32:26;;;;;;;4.33;2.27;;;;;;;24.29;48.54;98543.86;1889683;76;22208;-61
2021/08/31 09:35:20;;;;;;;4.10;2.62;;;;;;;23.85;49.45;98546.50;1850963;76;22179;-63
2021/08/31 09:38:18;;;;;;;5.95;2.60;;;;;;;23.53;49.70;98552.84;1854141;76;22614;-62
2021/08/31 09:40:53;;;;;;;5.30;2.60;;;;;;;23.34;50.77;98550.25;1875212;76;22139;-64
2021/08/31 09:43:41;;;;;;;4.50;3.02;;;;;;;23.16;51.51;98557.24;1861159;76;22210;-64
2021/08/31 09:46:48;;;;;;;4.25;2.75;;;;;;;23.05;51.43;98549.01;1862699;76;23361;-63
2021/08/31 09:49:43;;;;;;;4.30;2.90;;;;;;;22.86;52.91;98546.79;1869509;76;22152;-63
2021/08/31 09:52:35;;;;;;;3.90;2.80;;;;;;;22.57;53.52;98556.86;1839150;76;22208;-61
2021/08/31 09:55:16;;;;;;;4.40;2.90;;;;;;;22.50;54.28;98547.06;1854123;76;28299;-64
2021/08/31 09:57:51;;;;;;;4.55;2.72;;;;;;;22.59;53.72;98551.05;1870251;76;22156;-61
2021/08/31 10:00:26;;;;;;;4.55;2.80;;;;;;;22.56;53.31;98552.50;1870262;76;22149;-65
2021/08/31 10:03:01;;;;;;;3.90;2.72;;;;;;;22.57;53.54;98549.41;1870298;76;22538;-62
2021/08/31 10:05:37;;;;;;;5.28;2.27;;;;;;;22.49;53.70;98555.88;1870146;76;22587;-62
2021/08/31 10:08:39;;;;;;;4.22;2.70;;;;;;;22.31;53.32;98549.66;1869360;76;22169;-64
2021/08/31 10:11:33;;;;;;;4.45;2.67;;;;;;;22.27;53.86;98548.53;1870288;76;22620;-64
2021/08/31 10:14:10;;;;;;;5.37;2.75;;;;;;;22.23;53.57;98550.42;1870120;76;22153;-62
2021/08/31 10:16:44;;;;;;;6.85;2.70;;;;;;;22.26;53.77;98556.89;1844203;76;22142;-63
2021/08/31 10:19:21;;;;;;;4.10;2.60;;;;;;;22.26;53.80;98550.75;1850326;76;28129;-65
2021/08/31 10:22:22;;;;;;;3.47;2.45;;;;;;;22.39;53.66;98553.70;1865643;76;22613;-65
2021/08/31 10:25:22;;;;;;;4.03;2.58;;;;;;;22.44;52.89;98560.92;1854432;76;22174;-64
2021/08/31 10:28:29;;;;;;;4.53;2.92;;;;;;;22.50;52.76;98562.84;1853481;76;22630;-64
2021/08/31 10:31:31;;;;;;;4.58;2.95;;;;;;;22.50;53.14;98557.58;1846077;76;22212;-62
2021/08/31 10:34:33;;;;;;;4.40;2.25;;;;;;;22.64;52.95;98555.63;1856844;76;22262;-61
2021/08/31 10:37:16;;;;;;;5.95;3.08;;;;;;;22.83;53.08;98554.36;1858225;76;22206;-61
2021/08/31 10:39:57;;;;;;;3.12;2.22;;;;;;;23.07;52.72;98555.50;1853309;76;22155;-65
2021/08/31 10:42:40;;;;;;;4.65;2.60;;;;;;;23.19;51.54;98561.04;1865475;76;22587;-62
2021/08/31 10:45:44;;;;;;;3.80;2.67;;;;;;;23.28;51.91;98562.84;1848919;76;22160;-65
2021/08/31 10:48:28;;;;;;;5.22;2.37;;;;;;;23.43;52.15;98556.84;1875025;76;22266;-63
2021/08/31 10:51:08;;;;;;;5.08;2.70;;;;;;;23.72;51.63;98557.23;1854033;76;22603;-64
2021/08/31 10:53:49;;;;;;;4.05;2.37;;;;;;;23.64;51.19;98557.61;1855544;76;22168;-61
2021/08/31 10:56:43;;;;;;;4.10;2.58;;;;;;;23.32;51.30;98561.78;1851412;76;22211;-64
2021/08/31 10:59:37;;;;;;;3.95;2.52;;;;;;;23.18;51.04;98556.72;1855994;76;22536;-64
2021/08/31 11:02:17;;;;;;;3.60;1.90;;;;;;;23.16;50.03;98561.20;1850326;76;22179;-60
2021/08/31 11:04:58;;;;;;;6.03;2.27;;;;;;;23.08;50.68;98562.02;1834003;76;22207;-61
2021/08/31 11:07:32;;;;;;;5.08;2.17;;;;;;;23.03;49.49;98557.90;1853162;76;22578;-65
2021/08/31 11:10:38;;;;;;;4.70;2.62;;;;;;;23.21;50.21;98562.77;1855709;76;22638;-62
2021/08/31 11:13:24;;;;;;;4.85;2.25;;;;;;;23.46;50.00;98551.89;1853573;76;22151;-61
2021/08/31 11:16:28;;;;;;;5.22;2.30;;;;;;;23.51;49.12;98560.43;1854193;76;22577;-64
2021/08/31 11:19:28;;;;;;;3.67;2.30;;;;;;;23.56;50.11;98565.01;1852234;76;22179;-63
2021/08/31 11:22:22;;;;;;;5.80;2.08;;;;;;;23.65;49.68;98566.36;1858348;76;22158;-61
2021/08/31 11:25:27;;;;;;;3.35;2.40;;;;;;;23.75;48.87;98564.55;1856464;76;22199;-62
2021/08/31 11:28:15;;;;;;;7.12;2.70;;;;;;;23.70;49.36;98557.77;1841655;76;28012;-60
2021/08/31 11:31:13;;;;;;;7.25;2.72;;;;;;;23.89;49.23;98566.52;1855286;76;22152;-64
2021/08/31 11:33:52;;;;;;;4.33;2.35;;;;;;;24.18;49.46;98561.55;1860630;76;22165;-60
2021/08/31 11:36:28;;;;;;;3.58;2.42;;;;;;;24.51;48.60;98560.78;1855729;76;22204;-61
2021/08/31 11:39:12;;;;;;;5.20;2.42;;;;;;;24.79;48.06;98555.73;1849469;76;22194;-61
2021/08/31 11:41:48;;;;;;;3.85;2.25;;;;;;;24.98;46.99;98567.93;1855834;76;22558;-62
2021/08/31 11:44:24;;;;;;;4.42;2.83;;;;;;;24.76;47.01;98573.06;1856098;76;22191;-63
2021/08/31 11:47:11;;;;;;;5.47;2.67;;;;;;;24.43;46.60;98559.83;1865230;76;22637;-60
2021/08/31 11:50:01;;;;;;;4.55;2.60;;;;;;;24.11;47.86;98564.95;1852601;76;22681;-62
2021/08/31 11:52:36;;;;;;;3.90;2.50;;;;;;;24.04;48.09;98567.06;1832628;76;28461;-60
2021/08/31 11:55:11;;;;;;;7.17;2.40;;;;;;;24.31;47.93;98561.30;1855642;76;22186;-63
2021/08/31 11:58:03;;;;;;;5.42;2.33;;;;;;;24.27;48.21;98553.16;1865807;76;22624;-63
2021/08/31 12:00:45;;;;;;;3.20;2.10;;;;;;;24.04;48.42;98566.19;1852298;76;22191;-62
2021/08/31 12:03:29;;;;;;;3.62;2.37;;;;;;;24.17;49.64;98558.07;1854122;76;22208;-65
2021/08/31 12:06:25;;;;;;;3.27;2.12;;;;;;;24.70;49.02;98553.58;1865860;76;22211;-63
2021/08/31 12:09:27;;;;;;;3.10;2.17;;;;;;;25.15;47.16;98552.50;1866664;76;22256;-62
2021/08/31 12:12:21;;;;;;;2.87;1.70;;;;;;;25.39;46.02;98548.98;1838076;76;27986;-63
2021/08/31 12:15:25;;;;;;;5.83;2.35;;;;;;;25.57;44.96;98551.92;1863645;76;22601;-63
2021/08/31 12:18:24;;;;;;;3.35;2.02;;;;;;;25.85;45.36;98550.34;1859102;76;22185;-63
2021/08/31 12:21:24;;;;;;;8.83;5.65;;;;;;;26.25;44.08;98553.29;1836991;75;22672;-63
2021/08/31 12:24:14;;;;;;;9.73;6.58;;;;;;;26.37;43.93;98543.30;1852915;76;22265;-65
2021/08/31 12:27:16;;;;;;;8.75;2.65;;;;;;;26.23;44.06;98553.84;1853316;76;22180;-61
2021/08/31 12:30:13;;;;;;;4.30;2.17;;;;;;;25.92;44.14;98543.77;1870296;76;22635;-64
2021/08/31 12:33:30;;;;;;;6.87;3.60;;;;;;;25.11;45.35;98553.12;1844233;76;28308;-63